sensor_id;sensor_type;location;lat;lon;timestamp;temperature;humidity
12602;DHT22;30282;16.436;99.370;2023-12-14T00:00:20;23.50;99.90
12602;DHT22;30282;16.436;99.370;2023-12-14T00:02:50;23.40;99.90
12602;DHT22;30282;16.436;99.370;2023-12-14T00:05:19;23.40;99.90
12602;DHT22;30282;16.436;99.370;2023-12-14T00:07:52;23.50;99.90
12602;DHT22;30282;16.436;99.370;2023-12-14T00:10:21;23.50;99.90
12602;DHT22;30282;16.436;99.370;2023-12-14T00:12:51;23.50;99.90
12602;DHT22;30282;16.436;99.370;2023-12-14T00:15:24;23.60;99.90
12602;DHT22;30282;16.436;99.370;2023-12-14T00:17:53;23.60;99.90
12602;DHT22;30282;16.436;99.370;2023-12-14T00:20:22;23.60;99.90
12602;DHT22;30282;16.436;99.370;2023-12-14T00:22:56;23.70;99.90
12602;DHT22;30282;16.436;99.370;2023-12-14T00:25:25;23.70;99.90
12602;DHT22;30282;16.436;99.370;2023-12-14T00:27:54;23.80;99.90
12602;DHT22;30282;16.436;99.370;2023-12-14T00:30:23;23.80;99.90
12602;DHT22;30282;16.436;99.370;2023-12-14T00:32:52;23.90;99.90
12602;DHT22;30282;16.436;99.370;2023-12-14T00:35:22;23.90;99.90
12602;DHT22;30282;16.436;99.370;2023-12-14T00:37:52;23.90;99.90
12602;DHT22;30282;16.436;99.370;2023-12-14T00:40:22;23.90;99.90
12602;DHT22;30282;16.436;99.370;2023-12-14T00:42:52;24.10;99.90
12602;DHT22;30282;16.436;99.370;2023-12-14T00:45:21;24.10;99.90
12602;DHT22;30282;16.436;99.370;2023-12-14T00:47:50;24.20;99.90
12602;DHT22;30282;16.436;99.370;2023-12-14T00:50:19;24.30;99.90
12602;DHT22;30282;16.436;99.370;2023-12-14T00:52:48;24.20;99.90
12602;DHT22;30282;16.436;99.370;2023-12-14T00:55:19;24.40;99.90
12602;DHT22;30282;16.436;99.370;2023-12-14T00:57:49;24.40;99.90
12602;DHT22;30282;16.436;99.370;2023-12-14T01:00:19;24.50;99.90
12602;DHT22;30282;16.436;99.370;2023-12-14T01:02:48;24.70;99.90
12602;DHT22;30282;16.436;99.370;2023-12-14T01:05:17;24.80;99.90
12602;DHT22;30282;16.436;99.370;2023-12-14T01:07:46;24.90;99.90
12602;DHT22;30282;16.436;99.370;2023-12-14T01:10:16;24.90;99.90
12602;DHT22;30282;16.436;99.370;2023-12-14T01:12:47;25.10;99.90
12602;DHT22;30282;16.436;99.370;2023-12-14T01:15:16;25.10;99.90
12602;DHT22;30282;16.436;99.370;2023-12-14T01:17:45;25.10;99.90
12602;DHT22;30282;16.436;99.370;2023-12-14T01:20:14;25.20;99.90
12602;DHT22;30282;16.436;99.370;2023-12-14T01:22:43;25.30;99.90
12602;DHT22;30282;16.436;99.370;2023-12-14T01:25:13;25.40;99.90
12602;DHT22;30282;16.436;99.370;2023-12-14T01:27:42;25.50;99.90
12602;DHT22;30282;16.436;99.370;2023-12-14T01:30:13;25.60;99.90
12602;DHT22;30282;16.436;99.370;2023-12-14T01:32:43;25.70;99.90
12602;DHT22;30282;16.436;99.370;2023-12-14T01:35:12;25.80;99.90
12602;DHT22;30282;16.436;99.370;2023-12-14T01:37:41;26.00;99.90
12602;DHT22;30282;16.436;99.370;2023-12-14T01:40:11;26.10;99.90
12602;DHT22;30282;16.436;99.370;2023-12-14T01:42:40;26.30;99.90
12602;DHT22;30282;16.436;99.370;2023-12-14T01:45:10;26.40;99.90
12602;DHT22;30282;16.436;99.370;2023-12-14T01:47:42;26.60;99.90
12602;DHT22;30282;16.436;99.370;2023-12-14T01:50:11;26.70;99.90
12602;DHT22;30282;16.436;99.370;2023-12-14T01:52:41;26.90;99.90
12602;DHT22;30282;16.436;99.370;2023-12-14T01:55:10;27.10;99.90
12602;DHT22;30282;16.436;99.370;2023-12-14T01:57:39;27.30;99.90
12602;DHT22;30282;16.436;99.370;2023-12-14T02:00:16;27.40;99.90
12602;DHT22;30282;16.436;99.370;2023-12-14T02:02:48;27.60;99.90
12602;DHT22;30282;16.436;99.370;2023-12-14T02:05:17;27.60;99.90
12602;DHT22;30282;16.436;99.370;2023-12-14T02:07:46;27.90;99.90
12602;DHT22;30282;16.436;99.370;2023-12-14T02:10:16;28.00;99.90
12602;DHT22;30282;16.436;99.370;2023-12-14T02:12:46;28.20;99.90
12602;DHT22;30282;16.436;99.370;2023-12-14T02:15:18;28.30;99.90
12602;DHT22;30282;16.436;99.370;2023-12-14T02:17:49;28.40;99.90
12602;DHT22;30282;16.436;99.370;2023-12-14T02:20:18;28.60;99.90
12602;DHT22;30282;16.436;99.370;2023-12-14T02:22:52;28.70;99.90
12602;DHT22;30282;16.436;99.370;2023-12-14T02:25:22;28.80;99.90
12602;DHT22;30282;16.436;99.370;2023-12-14T02:27:52;28.90;99.90
12602;DHT22;30282;16.436;99.370;2023-12-14T02:30:21;29.00;99.90
12602;DHT22;30282;16.436;99.370;2023-12-14T02:32:50;29.00;99.90
12602;DHT22;30282;16.436;99.370;2023-12-14T02:35:19;29.10;99.90
12602;DHT22;30282;16.436;99.370;2023-12-14T02:37:51;29.20;99.90
12602;DHT22;30282;16.436;99.370;2023-12-14T02:40:20;29.40;99.90
12602;DHT22;30282;16.436;99.370;2023-12-14T02:42:49;29.30;99.90
12602;DHT22;30282;16.436;99.370;2023-12-14T02:45:18;29.40;99.90
12602;DHT22;30282;16.436;99.370;2023-12-14T02:47:48;29.60;99.90
12602;DHT22;30282;16.436;99.370;2023-12-14T02:50:18;29.80;99.90
12602;DHT22;30282;16.436;99.370;2023-12-14T02:52:48;30.00;99.90
12602;DHT22;30282;16.436;99.370;2023-12-14T02:55:18;30.00;99.90
12602;DHT22;30282;16.436;99.370;2023-12-14T02:57:48;30.00;99.90
12602;DHT22;30282;16.436;99.370;2023-12-14T03:00:17;30.30;99.90
12602;DHT22;30282;16.436;99.370;2023-12-14T03:02:46;30.50;99.90
12602;DHT22;30282;16.436;99.370;2023-12-14T03:05:16;30.50;99.90
12602;DHT22;30282;16.436;99.370;2023-12-14T03:07:45;30.50;99.90
12602;DHT22;30282;16.436;99.370;2023-12-14T03:10:14;30.50;99.90
12602;DHT22;30282;16.436;99.370;2023-12-14T03:12:45;30.60;99.90
12602;DHT22;30282;16.436;99.370;2023-12-14T03:15:18;30.80;99.90
12602;DHT22;30282;16.436;99.370;2023-12-14T03:17:47;30.90;99.90
12602;DHT22;30282;16.436;99.370;2023-12-14T03:20:20;30.90;99.90
12602;DHT22;30282;16.436;99.370;2023-12-14T03:22:49;30.80;99.90
12602;DHT22;30282;16.436;99.370;2023-12-14T03:25:19;30.70;99.90
12602;DHT22;30282;16.436;99.370;2023-12-14T03:27:50;30.90;99.90
12602;DHT22;30282;16.436;99.370;2023-12-14T03:30:19;31.10;99.90
12602;DHT22;30282;16.436;99.370;2023-12-14T03:32:48;31.20;99.90
12602;DHT22;30282;16.436;99.370;2023-12-14T03:35:18;31.10;99.90
12602;DHT22;30282;16.436;99.370;2023-12-14T03:37:47;31.00;99.90
12602;DHT22;30282;16.436;99.370;2023-12-14T03:40:16;31.40;99.90
12602;DHT22;30282;16.436;99.370;2023-12-14T03:42:45;31.40;99.90
12602;DHT22;30282;16.436;99.370;2023-12-14T03:45:16;31.80;99.90
12602;DHT22;30282;16.436;99.370;2023-12-14T03:47:46;32.00;99.90
12602;DHT22;30282;16.436;99.370;2023-12-14T03:50:15;32.00;99.90
12602;DHT22;30282;16.436;99.370;2023-12-14T03:52:44;32.20;99.90
12602;DHT22;30282;16.436;99.370;2023-12-14T03:55:13;32.30;99.90
12602;DHT22;30282;16.436;99.370;2023-12-14T03:57:43;32.60;99.90
12602;DHT22;30282;16.436;99.370;2023-12-14T04:00:13;32.80;99.90
12602;DHT22;30282;16.436;99.370;2023-12-14T04:02:44;33.00;99.90
12602;DHT22;30282;16.436;99.370;2023-12-14T04:05:13;33.30;99.90
12602;DHT22;30282;16.436;99.370;2023-12-14T04:07:42;33.50;99.90
12602;DHT22;30282;16.436;99.370;2023-12-14T04:10:12;33.50;99.90
12602;DHT22;30282;16.436;99.370;2023-12-14T04:12:42;33.50;99.90
12602;DHT22;30282;16.436;99.370;2023-12-14T04:15:11;33.70;99.90
12602;DHT22;30282;16.436;99.370;2023-12-14T04:17:40;33.80;99.90
12602;DHT22;30282;16.436;99.370;2023-12-14T04:20:13;33.70;99.90
12602;DHT22;30282;16.436;99.370;2023-12-14T04:22:46;33.80;99.90
12602;DHT22;30282;16.436;99.370;2023-12-14T04:25:17;33.60;99.90
12602;DHT22;30282;16.436;99.370;2023-12-14T04:27:49;33.60;99.90
12602;DHT22;30282;16.436;99.370;2023-12-14T04:30:18;33.90;99.90
12602;DHT22;30282;16.436;99.370;2023-12-14T04:32:48;34.00;99.90
12602;DHT22;30282;16.436;99.370;2023-12-14T04:35:19;33.90;99.90
12602;DHT22;30282;16.436;99.370;2023-12-14T04:37:49;34.00;99.90
12602;DHT22;30282;16.436;99.370;2023-12-14T04:43:14;34.30;99.90
12602;DHT22;30282;16.436;99.370;2023-12-14T04:45:43;34.30;99.90
12602;DHT22;30282;16.436;99.370;2023-12-14T04:48:12;34.30;99.90
12602;DHT22;30282;16.436;99.370;2023-12-14T04:50:46;34.30;99.90
12602;DHT22;30282;16.436;99.370;2023-12-14T04:53:16;34.30;99.90
12602;DHT22;30282;16.436;99.370;2023-12-14T04:55:48;34.30;99.90
12602;DHT22;30282;16.436;99.370;2023-12-14T04:58:22;34.20;99.90
12602;DHT22;30282;16.436;99.370;2023-12-14T05:01:10;34.30;99.90
12602;DHT22;30282;16.436;99.370;2023-12-14T05:03:46;34.30;99.90
12602;DHT22;30282;16.436;99.370;2023-12-14T05:06:17;34.10;99.90
12602;DHT22;30282;16.436;99.370;2023-12-14T05:08:46;34.00;99.90
12602;DHT22;30282;16.436;99.370;2023-12-14T05:11:18;33.70;99.90
12602;DHT22;30282;16.436;99.370;2023-12-14T05:13:47;33.60;99.90
12602;DHT22;30282;16.436;99.370;2023-12-14T05:16:16;33.60;99.90
12602;DHT22;30282;16.436;99.370;2023-12-14T05:18:45;33.80;99.90
12602;DHT22;30282;16.436;99.370;2023-12-14T05:21:19;34.00;99.90
12602;DHT22;30282;16.436;99.370;2023-12-14T05:23:54;33.50;99.90
12602;DHT22;30282;16.436;99.370;2023-12-14T05:26:27;33.50;99.90
12602;DHT22;30282;16.436;99.370;2023-12-14T05:28:56;33.50;99.90
12602;DHT22;30282;16.436;99.370;2023-12-14T05:31:28;33.50;99.90
12602;DHT22;30282;16.436;99.370;2023-12-14T05:33:59;33.50;99.90
12602;DHT22;30282;16.436;99.370;2023-12-14T05:36:33;33.60;99.90
12602;DHT22;30282;16.436;99.370;2023-12-14T05:39:02;32.90;99.90
12602;DHT22;30282;16.436;99.370;2023-12-14T05:41:31;32.70;99.90
12602;DHT22;30282;16.436;99.370;2023-12-14T05:44:01;32.90;99.90
12602;DHT22;30282;16.436;99.370;2023-12-14T05:46:30;33.10;99.90
12602;DHT22;30282;16.436;99.370;2023-12-14T05:49:01;33.50;99.90
12602;DHT22;30282;16.436;99.370;2023-12-14T05:51:33;33.90;99.90
12602;DHT22;30282;16.436;99.370;2023-12-14T05:54:02;34.10;99.90
12602;DHT22;30282;16.436;99.370;2023-12-14T05:56:31;34.30;99.90
12602;DHT22;30282;16.436;99.370;2023-12-14T05:59:00;34.40;99.90
12602;DHT22;30282;16.436;99.370;2023-12-14T06:01:29;34.20;99.90
12602;DHT22;30282;16.436;99.370;2023-12-14T06:03:58;33.90;99.90
12602;DHT22;30282;16.436;99.370;2023-12-14T06:06:29;33.80;99.90
12602;DHT22;30282;16.436;99.370;2023-12-14T06:09:00;33.60;99.90
12602;DHT22;30282;16.436;99.370;2023-12-14T06:11:29;33.50;99.90
12602;DHT22;30282;16.436;99.370;2023-12-14T06:13:58;33.50;99.90
12602;DHT22;30282;16.436;99.370;2023-12-14T06:16:28;33.60;99.90
12602;DHT22;30282;16.436;99.370;2023-12-14T06:18:57;33.80;99.90
12602;DHT22;30282;16.436;99.370;2023-12-14T06:21:26;33.90;99.90
12602;DHT22;30282;16.436;99.370;2023-12-14T06:23:56;33.90;99.90
12602;DHT22;30282;16.436;99.370;2023-12-14T06:26:27;33.70;99.90
12602;DHT22;30282;16.436;99.370;2023-12-14T06:28:57;33.80;99.90
12602;DHT22;30282;16.436;99.370;2023-12-14T06:31:26;33.90;99.90
12602;DHT22;30282;16.436;99.370;2023-12-14T06:33:55;34.00;99.90
12602;DHT22;30282;16.436;99.370;2023-12-14T06:36:24;34.10;99.90
12602;DHT22;30282;16.436;99.370;2023-12-14T06:38:56;34.10;99.90
12602;DHT22;30282;16.436;99.370;2023-12-14T06:41:28;34.00;99.90
12602;DHT22;30282;16.436;99.370;2023-12-14T06:43:57;34.00;99.90
12602;DHT22;30282;16.436;99.370;2023-12-14T06:46:27;34.00;99.90
12602;DHT22;30282;16.436;99.370;2023-12-14T06:48:56;33.80;99.90
12602;DHT22;30282;16.436;99.370;2023-12-14T06:51:25;33.90;99.90
12602;DHT22;30282;16.436;99.370;2023-12-14T06:53:54;34.00;99.90
12602;DHT22;30282;16.436;99.370;2023-12-14T06:56:23;34.10;99.90
12602;DHT22;30282;16.436;99.370;2023-12-14T06:58:54;34.00;99.90
12602;DHT22;30282;16.436;99.370;2023-12-14T07:01:23;34.00;99.90
12602;DHT22;30282;16.436;99.370;2023-12-14T07:03:53;34.00;99.90
12602;DHT22;30282;16.436;99.370;2023-12-14T07:06:25;33.80;99.90
12602;DHT22;30282;16.436;99.370;2023-12-14T07:08:54;33.70;99.90
12602;DHT22;30282;16.436;99.370;2023-12-14T07:11:23;33.40;99.90
12602;DHT22;30282;16.436;99.370;2023-12-14T07:13:57;33.50;99.90
12602;DHT22;30282;16.436;99.370;2023-12-14T07:16:26;33.50;99.90
12602;DHT22;30282;16.436;99.370;2023-12-14T07:18:55;33.60;99.90
12602;DHT22;30282;16.436;99.370;2023-12-14T07:21:24;33.50;99.90
12602;DHT22;30282;16.436;99.370;2023-12-14T07:23:53;33.40;99.90
12602;DHT22;30282;16.436;99.370;2023-12-14T07:26:22;33.30;99.90
12602;DHT22;30282;16.436;99.370;2023-12-14T07:28:54;33.10;99.90
12602;DHT22;30282;16.436;99.370;2023-12-14T07:31:25;33.30;99.90
12602;DHT22;30282;16.436;99.370;2023-12-14T07:33:55;33.50;99.90
12602;DHT22;30282;16.436;99.370;2023-12-14T07:36:24;33.60;99.90
12602;DHT22;30282;16.436;99.370;2023-12-14T07:38:53;33.70;99.90
12602;DHT22;30282;16.436;99.370;2023-12-14T07:41:22;33.60;99.90
12602;DHT22;30282;16.436;99.370;2023-12-14T07:43:54;33.60;99.90
12602;DHT22;30282;16.436;99.370;2023-12-14T07:46:25;33.70;99.90
12602;DHT22;30282;16.436;99.370;2023-12-14T07:48:54;33.60;99.90
12602;DHT22;30282;16.436;99.370;2023-12-14T07:51:23;33.70;99.90
12602;DHT22;30282;16.436;99.370;2023-12-14T07:53:52;33.70;99.90
12602;DHT22;30282;16.436;99.370;2023-12-14T07:56:21;33.70;99.90
12602;DHT22;30282;16.436;99.370;2023-12-14T07:58:54;33.50;99.90
12602;DHT22;30282;16.436;99.370;2023-12-14T08:01:25;33.70;99.90
12602;DHT22;30282;16.436;99.370;2023-12-14T08:04:00;33.80;99.90
12602;DHT22;30282;16.436;99.370;2023-12-14T08:06:29;33.80;99.90
12602;DHT22;30282;16.436;99.370;2023-12-14T08:08:58;33.70;99.90
12602;DHT22;30282;16.436;99.370;2023-12-14T08:11:27;33.60;99.90
12602;DHT22;30282;16.436;99.370;2023-12-14T08:13:56;33.70;99.90
12602;DHT22;30282;16.436;99.370;2023-12-14T08:16:27;33.60;99.90
12602;DHT22;30282;16.436;99.370;2023-12-14T08:18:56;33.50;99.90
12602;DHT22;30282;16.436;99.370;2023-12-14T08:21:25;33.50;99.90
12602;DHT22;30282;16.436;99.370;2023-12-14T08:23:56;33.70;99.90
12602;DHT22;30282;16.436;99.370;2023-12-14T08:26:26;33.70;99.90
12602;DHT22;30282;16.436;99.370;2023-12-14T08:28:55;33.80;99.90
12602;DHT22;30282;16.436;99.370;2023-12-14T08:31:26;33.60;99.90
12602;DHT22;30282;16.436;99.370;2023-12-14T08:33:55;33.40;99.90
12602;DHT22;30282;16.436;99.370;2023-12-14T08:36:24;33.50;99.90
12602;DHT22;30282;16.436;99.370;2023-12-14T08:38:53;33.60;99.90
12602;DHT22;30282;16.436;99.370;2023-12-14T08:41:22;33.40;99.90
12602;DHT22;30282;16.436;99.370;2023-12-14T08:43:51;33.40;99.90
12602;DHT22;30282;16.436;99.370;2023-12-14T08:46:20;33.30;99.90
12602;DHT22;30282;16.436;99.370;2023-12-14T08:48:51;33.30;99.90
12602;DHT22;30282;16.436;99.370;2023-12-14T08:51:20;33.40;99.90
12602;DHT22;30282;16.436;99.370;2023-12-14T08:53:51;33.40;99.90
12602;DHT22;30282;16.436;99.370;2023-12-14T08:56:20;33.50;99.90
12602;DHT22;30282;16.436;99.370;2023-12-14T08:58:49;33.50;99.90
12602;DHT22;30282;16.436;99.370;2023-12-14T09:01:20;33.50;99.90
12602;DHT22;30282;16.436;99.370;2023-12-14T09:03:51;33.60;99.90
12602;DHT22;30282;16.436;99.370;2023-12-14T09:06:20;33.80;99.90
12602;DHT22;30282;16.436;99.370;2023-12-14T09:08:49;33.80;99.90
12602;DHT22;30282;16.436;99.370;2023-12-14T09:11:18;33.60;99.90
12602;DHT22;30282;16.436;99.370;2023-12-14T09:13:50;33.30;99.90
12602;DHT22;30282;16.436;99.370;2023-12-14T09:16:19;33.40;99.90
12602;DHT22;30282;16.436;99.370;2023-12-14T09:18:50;33.50;99.90
12602;DHT22;30282;16.436;99.370;2023-12-14T09:21:21;33.40;99.90
12602;DHT22;30282;16.436;99.370;2023-12-14T09:23:50;33.30;99.90
12602;DHT22;30282;16.436;99.370;2023-12-14T09:26:20;33.20;99.90
12602;DHT22;30282;16.436;99.370;2023-12-14T09:28:49;33.10;99.90
12602;DHT22;30282;16.436;99.370;2023-12-14T09:31:18;33.10;99.90
12602;DHT22;30282;16.436;99.370;2023-12-14T09:33:47;33.00;99.90
12602;DHT22;30282;16.436;99.370;2023-12-14T09:36:20;32.90;99.90
12602;DHT22;30282;16.436;99.370;2023-12-14T09:38:50;32.90;99.90
12602;DHT22;30282;16.436;99.370;2023-12-14T09:41:19;32.90;99.90
12602;DHT22;30282;16.436;99.370;2023-12-14T09:43:52;32.90;99.90
12602;DHT22;30282;16.436;99.370;2023-12-14T09:46:24;32.90;99.90
12602;DHT22;30282;16.436;99.370;2023-12-14T09:48:55;32.90;99.90
12602;DHT22;30282;16.436;99.370;2023-12-14T09:51:26;32.70;99.90
12602;DHT22;30282;16.436;99.370;2023-12-14T09:53:55;32.70;99.90
12602;DHT22;30282;16.436;99.370;2023-12-14T09:56:27;32.70;99.90
12602;DHT22;30282;16.436;99.370;2023-12-14T09:58:57;32.70;99.90
12602;DHT22;30282;16.436;99.370;2023-12-14T10:01:28;32.60;99.90
12602;DHT22;30282;16.436;99.370;2023-12-14T10:04:10;32.60;99.90
12602;DHT22;30282;16.436;99.370;2023-12-14T10:06:42;32.50;99.90
12602;DHT22;30282;16.436;99.370;2023-12-14T10:09:23;32.50;99.90
12602;DHT22;30282;16.436;99.370;2023-12-14T10:12:02;32.40;99.90
12602;DHT22;30282;16.436;99.370;2023-12-14T10:14:33;32.30;99.90
12602;DHT22;30282;16.436;99.370;2023-12-14T10:17:16;32.20;99.90
12602;DHT22;30282;16.436;99.370;2023-12-14T10:19:46;32.10;99.90
12602;DHT22;30282;16.436;99.370;2023-12-14T10:22:25;31.90;99.90
12602;DHT22;30282;16.436;99.370;2023-12-14T10:24:56;31.80;99.90
12602;DHT22;30282;16.436;99.370;2023-12-14T10:27:25;31.80;99.90
12602;DHT22;30282;16.436;99.370;2023-12-14T10:29:56;31.80;99.90
12602;DHT22;30282;16.436;99.370;2023-12-14T10:32:25;31.70;99.90
12602;DHT22;30282;16.436;99.370;2023-12-14T10:34:54;31.60;99.90
12602;DHT22;30282;16.436;99.370;2023-12-14T10:37:26;31.50;99.90
12602;DHT22;30282;16.436;99.370;2023-12-14T10:39:55;31.50;99.90
12602;DHT22;30282;16.436;99.370;2023-12-14T10:42:26;31.40;99.90
12602;DHT22;30282;16.436;99.370;2023-12-14T10:44:55;31.30;99.90
12602;DHT22;30282;16.436;99.370;2023-12-14T10:47:24;31.20;99.90
12602;DHT22;30282;16.436;99.370;2023-12-14T10:49:54;31.20;99.90
12602;DHT22;30282;16.436;99.370;2023-12-14T10:52:28;31.10;99.90
12602;DHT22;30282;16.436;99.370;2023-12-14T10:55:04;31.00;99.90
12602;DHT22;30282;16.436;99.370;2023-12-14T10:57:34;30.90;99.90
12602;DHT22;30282;16.436;99.370;2023-12-14T11:00:05;30.90;99.90
12602;DHT22;30282;16.436;99.370;2023-12-14T11:02:40;30.80;99.90
12602;DHT22;30282;16.436;99.370;2023-12-14T11:05:12;30.60;99.90
12602;DHT22;30282;16.436;99.370;2023-12-14T11:07:48;30.40;99.90
12602;DHT22;30282;16.436;99.370;2023-12-14T11:10:25;30.40;99.90
12602;DHT22;30282;16.436;99.370;2023-12-14T11:13:01;30.40;99.90
12602;DHT22;30282;16.436;99.370;2023-12-14T11:15:33;30.40;99.90
12602;DHT22;30282;16.436;99.370;2023-12-14T11:18:25;30.20;99.90
12602;DHT22;30282;16.436;99.370;2023-12-14T11:20:58;30.00;99.90
12602;DHT22;30282;16.436;99.370;2023-12-14T11:23:33;30.00;99.90
12602;DHT22;30282;16.436;99.370;2023-12-14T11:26:05;29.70;99.90
12602;DHT22;30282;16.436;99.370;2023-12-14T11:28:37;29.70;99.90
12602;DHT22;30282;16.436;99.370;2023-12-14T11:31:11;29.60;99.90
12602;DHT22;30282;16.436;99.370;2023-12-14T11:33:40;29.60;99.90
12602;DHT22;30282;16.436;99.370;2023-12-14T11:36:12;29.50;99.90
12602;DHT22;30282;16.436;99.370;2023-12-14T11:38:43;29.40;99.90
12602;DHT22;30282;16.436;99.370;2023-12-14T11:41:12;29.40;99.90
12602;DHT22;30282;16.436;99.370;2023-12-14T11:43:42;29.30;99.90
12602;DHT22;30282;16.436;99.370;2023-12-14T11:46:11;29.20;99.90
12602;DHT22;30282;16.436;99.370;2023-12-14T11:48:43;29.20;99.90
12602;DHT22;30282;16.436;99.370;2023-12-14T11:51:14;29.10;99.90
12602;DHT22;30282;16.436;99.370;2023-12-14T11:53:46;29.20;99.90
12602;DHT22;30282;16.436;99.370;2023-12-14T11:56:18;29.20;99.90
12602;DHT22;30282;16.436;99.370;2023-12-14T11:58:49;29.20;99.90
12602;DHT22;30282;16.436;99.370;2023-12-14T12:01:20;29.20;99.90
12602;DHT22;30282;16.436;99.370;2023-12-14T12:03:51;29.20;99.90
12602;DHT22;30282;16.436;99.370;2023-12-14T12:06:21;29.10;99.90
12602;DHT22;30282;16.436;99.370;2023-12-14T12:08:53;29.10;99.90
12602;DHT22;30282;16.436;99.370;2023-12-14T12:11:24;29.20;99.90
12602;DHT22;30282;16.436;99.370;2023-12-14T12:13:54;29.10;99.90
12602;DHT22;30282;16.436;99.370;2023-12-14T12:16:24;29.10;99.90
12602;DHT22;30282;16.436;99.370;2023-12-14T12:18:53;29.10;99.90
12602;DHT22;30282;16.436;99.370;2023-12-14T12:21:22;29.10;99.90
12602;DHT22;30282;16.436;99.370;2023-12-14T12:23:53;29.20;99.90
12602;DHT22;30282;16.436;99.370;2023-12-14T12:26:22;29.10;99.90
12602;DHT22;30282;16.436;99.370;2023-12-14T12:28:52;29.00;99.90
12602;DHT22;30282;16.436;99.370;2023-12-14T12:31:22;29.00;99.90
12602;DHT22;30282;16.436;99.370;2023-12-14T12:33:52;28.90;99.90
12602;DHT22;30282;16.436;99.370;2023-12-14T12:36:24;28.80;99.90
12602;DHT22;30282;16.436;99.370;2023-12-14T12:38:55;28.80;99.90
12602;DHT22;30282;16.436;99.370;2023-12-14T12:41:24;28.80;99.90
12602;DHT22;30282;16.436;99.370;2023-12-14T12:43:53;28.90;99.90
12602;DHT22;30282;16.436;99.370;2023-12-14T12:46:22;28.90;99.90
12602;DHT22;30282;16.436;99.370;2023-12-14T12:48:52;28.70;99.90
12602;DHT22;30282;16.436;99.370;2023-12-14T12:51:21;28.60;99.90
12602;DHT22;30282;16.436;99.370;2023-12-14T12:53:54;28.60;99.90
12602;DHT22;30282;16.436;99.370;2023-12-14T12:56:24;28.50;99.90
12602;DHT22;30282;16.436;99.370;2023-12-14T12:58:53;28.50;99.90
12602;DHT22;30282;16.436;99.370;2023-12-14T13:01:23;28.50;99.90
12602;DHT22;30282;16.436;99.370;2023-12-14T13:03:55;28.40;99.90
12602;DHT22;30282;16.436;99.370;2023-12-14T13:06:25;28.40;99.90
12602;DHT22;30282;16.436;99.370;2023-12-14T13:08:56;28.30;99.90
12602;DHT22;30282;16.436;99.370;2023-12-14T13:11:26;28.10;99.90
12602;DHT22;30282;16.436;99.370;2023-12-14T13:13:56;28.10;99.90
12602;DHT22;30282;16.436;99.370;2023-12-14T13:16:25;28.10;99.90
12602;DHT22;30282;16.436;99.370;2023-12-14T13:18:54;28.10;99.90
12602;DHT22;30282;16.436;99.370;2023-12-14T13:21:24;28.10;99.90
12602;DHT22;30282;16.436;99.370;2023-12-14T13:23:55;28.10;99.90
12602;DHT22;30282;16.436;99.370;2023-12-14T13:26:25;28.00;99.90
12602;DHT22;30282;16.436;99.370;2023-12-14T13:28:54;28.00;99.90
12602;DHT22;30282;16.436;99.370;2023-12-14T13:31:24;28.00;99.90
12602;DHT22;30282;16.436;99.370;2023-12-14T13:33:53;27.90;99.90
12602;DHT22;30282;16.436;99.370;2023-12-14T13:36:22;27.80;99.90
12602;DHT22;30282;16.436;99.370;2023-12-14T13:38:52;27.80;99.90
12602;DHT22;30282;16.436;99.370;2023-12-14T13:41:24;27.70;99.90
12602;DHT22;30282;16.436;99.370;2023-12-14T13:43:53;27.60;99.90
12602;DHT22;30282;16.436;99.370;2023-12-14T13:46:22;27.60;99.90
12602;DHT22;30282;16.436;99.370;2023-12-14T13:48:51;27.60;99.90
12602;DHT22;30282;16.436;99.370;2023-12-14T13:51:21;27.50;99.90
12602;DHT22;30282;16.436;99.370;2023-12-14T13:53:53;27.50;99.90
12602;DHT22;30282;16.436;99.370;2023-12-14T13:56:32;27.60;99.90
12602;DHT22;30282;16.436;99.370;2023-12-14T13:59:01;27.60;99.90
12602;DHT22;30282;16.436;99.370;2023-12-14T14:01:30;27.60;99.90
12602;DHT22;30282;16.436;99.370;2023-12-14T14:03:59;27.60;99.90
12602;DHT22;30282;16.436;99.370;2023-12-14T14:06:29;27.50;99.90
12602;DHT22;30282;16.436;99.370;2023-12-14T14:08:58;27.50;99.90
12602;DHT22;30282;16.436;99.370;2023-12-14T14:11:27;27.40;99.90
12602;DHT22;30282;16.436;99.370;2023-12-14T14:14:01;27.20;99.90
12602;DHT22;30282;16.436;99.370;2023-12-14T14:16:30;26.90;99.90
12602;DHT22;30282;16.436;99.370;2023-12-14T14:19:02;26.80;99.90
12602;DHT22;30282;16.436;99.370;2023-12-14T14:21:34;26.90;99.90
12602;DHT22;30282;16.436;99.370;2023-12-14T14:24:03;26.90;99.90
12602;DHT22;30282;16.436;99.370;2023-12-14T14:26:32;26.90;99.90
12602;DHT22;30282;16.436;99.370;2023-12-14T14:29:03;26.80;99.90
12602;DHT22;30282;16.436;99.370;2023-12-14T14:31:32;26.60;99.90
12602;DHT22;30282;16.436;99.370;2023-12-14T14:34:02;26.60;99.90
12602;DHT22;30282;16.436;99.370;2023-12-14T14:36:35;26.50;99.90
12602;DHT22;30282;16.436;99.370;2023-12-14T14:39:04;26.40;99.90
12602;DHT22;30282;16.436;99.370;2023-12-14T14:41:35;26.30;99.90
12602;DHT22;30282;16.436;99.370;2023-12-14T14:44:07;26.20;99.90
12602;DHT22;30282;16.436;99.370;2023-12-14T14:46:39;26.10;99.90
12602;DHT22;30282;16.436;99.370;2023-12-14T14:49:08;26.00;99.90
12602;DHT22;30282;16.436;99.370;2023-12-14T14:51:38;26.10;99.90
12602;DHT22;30282;16.436;99.370;2023-12-14T14:54:07;26.30;99.90
12602;DHT22;30282;16.436;99.370;2023-12-14T14:56:36;26.40;99.90
12602;DHT22;30282;16.436;99.370;2023-12-14T14:59:07;26.40;99.90
12602;DHT22;30282;16.436;99.370;2023-12-14T15:01:38;26.40;99.90
12602;DHT22;30282;16.436;99.370;2023-12-14T15:04:07;26.40;99.90
12602;DHT22;30282;16.436;99.370;2023-12-14T15:06:38;26.40;99.90
12602;DHT22;30282;16.436;99.370;2023-12-14T15:09:07;26.50;99.90
12602;DHT22;30282;16.436;99.370;2023-12-14T15:11:36;26.50;99.90
12602;DHT22;30282;16.436;99.370;2023-12-14T15:14:07;26.40;99.90
12602;DHT22;30282;16.436;99.370;2023-12-14T15:16:37;26.50;99.90
12602;DHT22;30282;16.436;99.370;2023-12-14T15:19:06;26.40;99.90
12602;DHT22;30282;16.436;99.370;2023-12-14T15:21:35;26.40;99.90
12602;DHT22;30282;16.436;99.370;2023-12-14T15:24:05;26.40;99.90
12602;DHT22;30282;16.436;99.370;2023-12-14T15:26:35;26.30;99.90
12602;DHT22;30282;16.436;99.370;2023-12-14T15:29:04;26.30;99.90
12602;DHT22;30282;16.436;99.370;2023-12-14T15:31:35;26.30;99.90
12602;DHT22;30282;16.436;99.370;2023-12-14T15:34:05;26.30;99.90
12602;DHT22;30282;16.436;99.370;2023-12-14T15:36:34;26.30;99.90